Time,TemperatureF,DewpointF,PressureIn,WindDirection,WindDirectionDegrees,WindSpeedMPH,WindSpeedGustMPH,Humidity,HourlyPrecipIn,Conditions,Clouds,dailyrainin,SoftwareType,DateUTC
2013-07-26 00:12:00,62.1,59.0,30.07,SSE,148,0.0,1.0,89,0.00,,,0.00,weatherlink.com 1.10,2013-07-26 04:12:00,
2013-07-26 00:27:00,63.1,58.0,30.07,SE,138,0.0,2.0,84,0.00,,,0.00,weatherlink.com 1.10,2013-07-26 04:27:00,
2013-07-26 00:42:00,63.4,58.0,30.06,ESE,115,0.0,2.0,82,0.00,,,0.00,weatherlink.com 1.10,2013-07-26 04:42:00,
2013-07-26 00:57:00,62.6,58.0,30.06,SSE,155,0.0,1.0,84,0.00,,,0.00,weatherlink.com 1.10,2013-07-26 04:57:00,
2013-07-26 01:12:00,61.9,57.0,30.06,SSE,155,0.0,1.0,85,0.00,,,0.00,weatherlink.com 1.10,2013-07-26 05:12:00,
2013-07-26 01:27:00,62.0,58.0,30.06,SSE,155,1.0,1.0,85,0.00,,,0.00,weatherlink.com 1.10,2013-07-26 05:27:00,
2013-07-26 01:42:00,61.1,57.0,30.06,SSE,155,0.0,1.0,87,0.00,,,0.00,weatherlink.com 1.10,2013-07-26 05:42:00,
2013-07-26 01:57:00,61.0,57.0,30.06,SSE,155,0.0,1.0,87,0.00,,,0.00,weatherlink.com 1.10,2013-07-26 05:57:00,
2013-07-26 02:13:00,61.5,57.0,30.05,SE,143,2.0,2.0,86,0.00,,,0.00,weatherlink.com 1.10,2013-07-26 06:13:00,
2013-07-26 02:28:00,61.8,57.0,30.05,SSE,160,1.0,2.0,84,0.00,,,0.00,weatherlink.com 1.10,2013-07-26 06:28:00,
2013-07-26 02:43:00,61.8,57.0,30.05,SE,132,0.0,2.0,83,0.00,,,0.00,weatherlink.com 1.10,2013-07-26 06:43:00,
2013-07-26 02:58:00,61.6,56.0,30.04,SSE,156,0.0,1.0,83,0.00,,,0.00,weatherlink.com 1.10,2013-07-26 06:58:00,
2013-07-26 03:13:00,61.0,56.0,30.04,SSE,156,0.0,1.0,84,0.00,,,0.00,weatherlink.com 1.10,2013-07-26 07:13:00,
2013-07-26 03:28:00,60.4,56.0,30.03,SE,131,0.0,1.0,86,0.00,,,0.00,weatherlink.com 1.10,2013-07-26 07:28:00,
2013-07-26 03:43:00,59.5,56.0,30.04,South,170,0.0,1.0,87,0.00,,,0.00,weatherlink.com 1.10,2013-07-26 07:43:00,
2013-07-26 03:58:00,58.9,56.0,30.04,South,170,0.0,1.0,89,0.00,,,0.00,weatherlink.com 1.10,2013-07-26 07:58:00,
2013-07-26 04:13:00,58.6,56.0,30.04,South,170,1.0,1.0,90,0.00,,,0.00,weatherlink.com 1.10,2013-07-26 08:13:00,
2013-07-26 04:28:00,59.5,56.0,30.04,ESE,120,2.0,2.0,89,0.00,,,0.00,weatherlink.com 1.10,2013-07-26 08:28:00,
2013-07-26 04:43:00,60.2,56.0,30.03,SSE,148,1.0,2.0,86,0.00,,,0.00,weatherlink.com 1.10,2013-07-26 08:43:00,
2013-07-26 04:58:00,59.5,56.0,30.03,SE,144,0.0,1.0,87,0.00,,,0.00,weatherlink.com 1.10,2013-07-26 08:58:00,
2013-07-26 05:13:00,58.7,56.0,30.03,SSE,153,0.0,1.0,89,0.00,,,0.00,weatherlink.com 1.10,2013-07-26 09:13:00,
2013-07-26 05:28:00,58.0,55.0,30.03,SE,134,0.0,1.0,90,0.00,,,0.00,weatherlink.com 1.10,2013-07-26 09:28:00,
2013-07-26 05:43:00,57.6,55.0,30.04,SSE,167,0.0,1.0,91,0.00,,,0.00,weatherlink.com 1.10,2013-07-26 09:43:00,
2013-07-26 05:58:00,57.4,55.0,30.04,SSE,167,0.0,0.0,92,0.00,,,0.00,weatherlink.com 1.10,2013-07-26 09:58:00,
2013-07-26 06:13:00,57.7,55.0,30.05,SSE,168,0.0,0.0,91,0.00,,,0.00,weatherlink.com 1.10,2013-07-26 10:13:00,
2013-07-26 06:28:00,58.2,55.0,30.04,ESE,114,0.0,1.0,90,0.00,,,0.00,weatherlink.com 1.10,2013-07-26 10:28:00,
2013-07-26 06:43:00,57.6,55.0,30.04,ESE,114,0.0,0.0,91,0.00,,,0.00,weatherlink.com 1.10,2013-07-26 10:43:00,
2013-07-26 06:58:00,58.1,55.0,30.04,SSE,156,0.0,1.0,90,0.00,,,0.00,weatherlink.com 1.10,2013-07-26 10:58:00,
2013-07-26 07:13:00,58.1,56.0,30.04,SE,142,1.0,1.0,92,0.00,,,0.00,weatherlink.com 1.10,2013-07-26 11:13:00,
2013-07-26 07:28:00,59.0,56.0,30.05,SSW,205,1.0,1.0,90,0.00,,,0.00,weatherlink.com 1.10,2013-07-26 11:28:00,
2013-07-26 07:43:00,59.7,57.0,30.05,SSE,167,1.0,2.0,89,0.00,,,0.00,weatherlink.com 1.10,2013-07-26 11:43:00,
2013-07-26 07:58:00,60.6,57.0,30.05,SE,145,1.0,2.0,87,0.00,,,0.00,weatherlink.com 1.10,2013-07-26 11:58:00,
2013-07-26 08:13:00,61.3,57.0,30.05,SSE,151,2.0,4.0,85,0.00,,,0.00,weatherlink.com 1.10,2013-07-26 12:13:00,
2013-07-26 08:28:00,62.2,57.0,30.04,SE,141,1.0,3.0,84,0.00,,,0.00,weatherlink.com 1.10,2013-07-26 12:28:00,
2013-07-26 08:43:00,63.9,58.0,30.04,SE,145,1.0,5.0,82,0.00,,,0.00,weatherlink.com 1.10,2013-07-26 12:43:00,
2013-07-26 08:58:00,65.9,59.0,30.04,SSE,152,3.0,6.0,78,0.00,,,0.00,weatherlink.com 1.10,2013-07-26 12:58:00,
2013-07-26 09:13:00,67.0,59.0,30.05,ESE,123,3.0,6.0,75,0.00,,,0.00,weatherlink.com 1.10,2013-07-26 13:13:00,
2013-07-26 09:29:00,68.7,59.0,30.05,SSE,165,4.0,8.0,72,0.00,,,0.00,weatherlink.com 1.10,2013-07-26 13:29:00,
2013-07-26 09:44:00,69.8,60.0,30.05,SSE,158,5.0,8.0,70,0.00,,,0.00,weatherlink.com 1.10,2013-07-26 13:44:00,
2013-07-26 09:59:00,70.6,60.0,30.05,SSE,159,4.0,6.0,68,0.00,,,0.00,weatherlink.com 1.10,2013-07-26 13:59:00,
2013-07-26 10:14:00,70.7,59.0,30.05,SSE,164,4.0,8.0,67,0.00,,,0.00,weatherlink.com 1.10,2013-07-26 14:14:00,
2013-07-26 10:29:00,70.9,59.0,30.05,South,173,5.0,7.0,67,0.00,,,0.00,weatherlink.com 1.10,2013-07-26 14:29:00,
2013-07-26 10:44:00,70.7,59.0,30.04,South,174,5.0,8.0,67,0.00,,,0.00,weatherlink.com 1.10,2013-07-26 14:44:00,
2013-07-26 10:59:00,70.9,60.0,30.04,SE,146,4.0,8.0,68,0.00,,,0.00,weatherlink.com 1.10,2013-07-26 14:59:00,
2013-07-26 11:14:00,71.5,61.0,30.03,SE,124,3.0,7.0,69,0.00,,,0.00,weatherlink.com 1.10,2013-07-26 15:14:00,
2013-07-26 11:29:00,72.0,60.0,30.03,SSE,149,4.0,8.0,66,0.00,,,0.00,weatherlink.com 1.10,2013-07-26 15:29:00,
2013-07-26 11:44:00,71.2,61.0,30.02,SSE,155,3.0,8.0,69,0.00,,,0.00,weatherlink.com 1.10,2013-07-26 15:44:00,
2013-07-26 11:59:00,71.9,61.0,30.02,SSE,148,1.0,5.0,69,0.00,,,0.00,weatherlink.com 1.10,2013-07-26 15:59:00,
2013-07-26 12:14:00,72.8,61.0,30.02,SSE,154,4.0,9.0,67,0.00,,,0.00,weatherlink.com 1.10,2013-07-26 16:14:00,
2013-07-26 12:29:00,72.4,61.0,30.02,SSE,155,6.0,8.0,67,0.00,,,0.00,weatherlink.com 1.10,2013-07-26 16:29:00,
2013-07-26 12:44:00,72.6,61.0,30.01,South,176,5.0,8.0,67,0.00,,,0.00,weatherlink.com 1.10,2013-07-26 16:44:00,
2013-07-26 12:59:00,72.7,62.0,30.01,SE,143,5.0,7.0,68,0.00,,,0.00,weatherlink.com 1.10,2013-07-26 16:59:00,
2013-07-26 13:14:00,72.6,61.0,30.00,SE,127,4.0,7.0,67,0.00,,,0.00,weatherlink.com 1.10,2013-07-26 17:14:00,
2013-07-26 13:29:00,72.4,62.0,30.01,SSE,155,5.0,8.0,69,0.00,,,0.00,weatherlink.com 1.10,2013-07-26 17:29:00,
2013-07-26 13:44:00,72.6,61.0,30.00,ESE,108,5.0,8.0,68,0.00,,,0.00,weatherlink.com 1.10,2013-07-26 17:44:00,
2013-07-26 13:59:00,74.1,62.0,29.99,SSE,154,3.0,8.0,67,0.00,,,0.00,weatherlink.com 1.10,2013-07-26 17:59:00,
2013-07-26 14:14:00,75.3,62.0,29.99,SSE,165,6.0,10.0,64,0.00,,,0.00,weatherlink.com 1.10,2013-07-26 18:14:00,
2013-07-26 14:29:00,76.4,63.0,29.98,SE,143,4.0,8.0,63,0.00,,,0.00,weatherlink.com 1.10,2013-07-26 18:29:00,
2013-07-26 14:44:00,76.3,63.0,29.98,SSW,210,3.0,9.0,64,0.00,,,0.00,weatherlink.com 1.10,2013-07-26 18:44:00,
2013-07-26 14:59:00,75.5,61.0,29.97,SW,227,11.0,11.0,62,0.00,,,0.00,weatherlink.com 1.10,2013-07-26 18:59:00,
2013-07-26 15:14:00,75.4,61.0,29.97,SSE,159,6.0,10.0,61,0.00,,,0.00,weatherlink.com 1.10,2013-07-26 19:14:00,
2013-07-26 15:29:00,75.3,60.0,29.96,SSW,212,6.0,13.0,60,0.00,,,0.00,weatherlink.com 1.10,2013-07-26 19:29:00,
2013-07-26 15:44:00,75.8,61.0,29.96,SSE,162,4.0,10.0,60,0.00,,,0.00,weatherlink.com 1.10,2013-07-26 19:44:00,
2013-07-26 15:59:00,76.3,62.0,29.96,SSW,213,5.0,9.0,62,0.00,,,0.00,weatherlink.com 1.10,2013-07-26 19:59:00,
2013-07-26 16:14:00,76.5,61.0,29.95,SSE,166,5.0,12.0,59,0.00,,,0.00,weatherlink.com 1.10,2013-07-26 20:14:00,
2013-07-26 16:29:00,77.0,63.0,29.94,SSW,203,9.0,16.0,62,0.00,,,0.00,weatherlink.com 1.10,2013-07-26 20:29:00,
2013-07-26 16:44:00,76.0,62.0,29.94,SSE,167,5.0,10.0,63,0.00,,,0.00,weatherlink.com 1.10,2013-07-26 20:44:00,
2013-07-26 16:59:00,74.9,62.0,29.94,SW,233,7.0,11.0,64,0.00,,,0.00,weatherlink.com 1.10,2013-07-26 20:59:00,
2013-07-26 17:14:00,74.4,62.0,29.94,SSW,212,6.0,9.0,66,0.00,,,0.00,weatherlink.com 1.10,2013-07-26 21:14:00,
2013-07-26 17:29:00,74.8,63.0,29.94,WSW,248,6.0,8.0,66,0.00,,,0.00,weatherlink.com 1.10,2013-07-26 21:29:00,
2013-07-26 17:44:00,74.6,63.0,29.93,SW,225,6.0,9.0,67,0.00,,,0.00,weatherlink.com 1.10,2013-07-26 21:44:00,
2013-07-26 18:00:00,74.3,63.0,29.93,SSW,198,1.0,7.0,69,0.00,,,0.00,weatherlink.com 1.10,2013-07-26 22:00:00,
2013-07-26 18:15:00,74.0,63.0,29.93,SSW,211,3.0,6.0,69,0.00,,,0.00,weatherlink.com 1.10,2013-07-26 22:15:00,
2013-07-26 18:30:00,73.9,63.0,29.92,SW,214,5.0,8.0,68,0.00,,,0.00,weatherlink.com 1.10,2013-07-26 22:30:00,
2013-07-26 18:45:00,74.2,63.0,29.92,SW,233,3.0,5.0,69,0.00,,,0.00,weatherlink.com 1.10,2013-07-26 22:45:00,
2013-07-26 19:00:00,73.8,61.0,29.92,SW,233,8.0,12.0,64,0.00,,,0.00,weatherlink.com 1.10,2013-07-26 23:00:00,
2013-07-26 19:15:00,73.4,62.0,29.92,SSW,208,5.0,9.0,67,0.00,,,0.00,weatherlink.com 1.10,2013-07-26 23:15:00,
2013-07-26 19:30:00,72.9,62.0,29.92,SW,224,5.0,9.0,68,0.00,,,0.00,weatherlink.com 1.10,2013-07-26 23:30:00,
2013-07-26 19:45:00,72.5,62.0,29.92,SSW,203,6.0,10.0,69,0.00,,,0.00,weatherlink.com 1.10,2013-07-26 23:45:00,
2013-07-26 20:00:00,72.4,62.0,29.91,South,187,4.0,9.0,70,0.00,,,0.00,weatherlink.com 1.10,2013-07-27 00:00:00,
2013-07-26 20:15:00,72.3,63.0,29.91,SW,228,6.0,10.0,72,0.00,,,0.00,weatherlink.com 1.10,2013-07-27 00:15:00,
2013-07-26 20:30:00,72.0,62.0,29.91,SW,217,9.0,11.0,71,0.00,,,0.00,weatherlink.com 1.10,2013-07-27 00:30:00,
2013-07-26 20:45:00,71.6,61.0,29.91,SSW,201,4.0,9.0,70,0.00,,,0.00,weatherlink.com 1.10,2013-07-27 00:45:00,
2013-07-26 21:00:00,71.3,61.0,29.90,South,176,6.0,7.0,70,0.00,,,0.00,weatherlink.com 1.10,2013-07-27 01:00:00,
2013-07-26 21:15:00,71.0,61.0,29.90,SSW,201,3.0,7.0,70,0.00,,,0.00,weatherlink.com 1.10,2013-07-27 01:15:00,
2013-07-26 21:30:00,70.9,61.0,29.90,SSW,194,5.0,7.0,71,0.00,,,0.00,weatherlink.com 1.10,2013-07-27 01:30:00,
2013-07-26 21:45:00,70.6,61.0,29.90,SSW,198,7.0,16.0,72,0.00,,,0.00,weatherlink.com 1.10,2013-07-27 01:45:00,
2013-07-26 22:00:00,69.9,61.0,29.90,SW,218,4.0,9.0,74,0.00,,,0.00,weatherlink.com 1.10,2013-07-27 02:00:00,
2013-07-26 22:15:00,69.2,62.0,29.90,SW,217,5.0,9.0,78,0.00,,,0.00,weatherlink.com 1.10,2013-07-27 02:15:00,
2013-07-26 22:30:00,67.9,62.0,29.90,SSW,195,3.0,4.0,82,0.00,,,0.00,weatherlink.com 1.10,2013-07-27 02:30:00,
2013-07-26 22:45:00,67.5,63.0,29.89,SSE,167,2.0,5.0,84,0.00,,,0.00,weatherlink.com 1.10,2013-07-27 02:45:00,
2013-07-26 23:00:00,67.4,62.0,29.89,South,188,2.0,4.0,84,0.00,,,0.00,weatherlink.com 1.10,2013-07-27 03:00:00,
2013-07-26 23:15:00,67.5,63.0,29.89,South,169,2.0,3.0,85,0.00,,,0.00,weatherlink.com 1.10,2013-07-27 03:15:00,
2013-07-26 23:30:00,67.4,63.0,29.89,SSW,197,3.0,4.0,86,0.00,,,0.00,weatherlink.com 1.10,2013-07-27 03:30:00,
2013-07-26 23:45:00,67.4,63.0,29.89,SSE,165,2.0,3.0,86,0.00,,,0.00,weatherlink.com 1.10,2013-07-27 03:45:00,